createdAt,value
2018-12-19T00:00:50.462Z,5.62
2018-12-19T00:02:43.442Z,5.61
2018-12-19T00:03:43.491Z,5.62
2018-12-19T00:05:36.468Z,5.65
2018-12-19T00:06:36.520Z,5.64
2018-12-19T00:08:29.502Z,5.69
2018-12-19T00:09:29.563Z,5.66
2018-12-19T00:11:22.536Z,5.75
2018-12-19T00:12:22.598Z,5.71
2018-12-19T00:14:15.570Z,5.69
2018-12-19T00:15:15.618Z,5.73
2018-12-19T00:17:08.592Z,5.72
2018-12-19T00:18:08.647Z,5.72
2018-12-19T00:20:01.627Z,5.71
2018-12-19T00:21:01.678Z,5.84
2018-12-19T00:22:54.659Z,5.79
2018-12-19T00:23:54.707Z,5.89
2018-12-19T00:25:47.682Z,5.90
2018-12-19T00:26:47.735Z,5.86
2018-12-19T00:28:40.715Z,5.90
2018-12-19T00:29:40.764Z,5.87
2018-12-19T00:31:33.745Z,5.89
2018-12-19T00:32:33.797Z,5.90
2018-12-19T00:34:26.773Z,5.90
2018-12-19T00:35:26.834Z,5.97
2018-12-19T00:37:19.797Z,5.94
2018-12-19T00:38:19.853Z,5.93
2018-12-19T00:40:12.839Z,6.04
2018-12-19T00:41:12.885Z,6.08
2018-12-19T00:43:05.867Z,6.04
2018-12-19T00:44:05.913Z,6.07
2018-12-19T00:45:58.888Z,6.12
2018-12-19T00:46:58.945Z,6.12
2018-12-19T00:48:51.922Z,6.17
2018-12-19T00:49:51.979Z,6.08
2018-12-19T00:51:44.953Z,6.12
2018-12-19T00:52:45.002Z,6.24
2018-12-19T00:54:37.986Z,6.26
2018-12-19T00:55:38.036Z,6.24
2018-12-19T00:57:31.010Z,6.26
2018-12-19T00:58:31.066Z,6.27
2018-12-19T01:00:24.047Z,6.28
2018-12-19T01:01:24.096Z,6.28
2018-12-19T01:03:17.084Z,6.31
2018-12-19T01:04:17.130Z,6.36
2018-12-19T01:06:10.107Z,6.38
2018-12-19T01:07:10.159Z,6.33
2018-12-19T01:09:03.139Z,6.30
2018-12-19T01:10:03.188Z,6.36
2018-12-19T01:11:56.163Z,6.39
2018-12-19T01:12:56.216Z,6.33
2018-12-19T01:14:49.199Z,6.45
2018-12-19T01:15:49.252Z,6.33
2018-12-19T01:17:42.249Z,6.48
2018-12-19T01:18:42.299Z,6.28
2018-12-19T01:20:35.281Z,6.46
2018-12-19T01:21:35.329Z,6.49
2018-12-19T01:23:28.322Z,6.41
2018-12-19T01:24:28.377Z,6.42
2018-12-19T01:26:21.349Z,6.48
2018-12-19T01:27:21.416Z,6.46
2018-12-19T01:29:14.383Z,6.52
2018-12-19T01:30:14.445Z,6.51
2018-12-19T01:32:07.414Z,6.66
2018-12-19T01:33:07.471Z,6.62
2018-12-19T01:35:00.452Z,6.77
2018-12-19T01:36:00.499Z,6.69
2018-12-19T01:37:53.475Z,6.66
2018-12-19T01:38:53.531Z,6.67
2018-12-19T01:40:46.512Z,6.72
2018-12-19T01:41:46.567Z,6.75
2018-12-19T01:43:39.551Z,6.75
2018-12-19T01:44:39.605Z,6.74
2018-12-19T01:46:32.575Z,6.78
2018-12-19T01:47:32.632Z,6.77
2018-12-19T01:49:25.608Z,6.78
2018-12-19T01:50:25.659Z,6.70
2018-12-19T01:52:18.642Z,6.75
2018-12-19T01:53:18.692Z,6.63
2018-12-19T01:55:11.673Z,6.72
2018-12-19T01:56:11.722Z,6.81
2018-12-19T01:58:04.698Z,6.74
2018-12-19T01:59:04.753Z,6.74
2018-12-19T02:00:57.732Z,6.77
2018-12-19T02:01:57.785Z,6.66
2018-12-19T02:03:50.767Z,6.74
2018-12-19T02:04:50.817Z,6.67
2018-12-19T02:06:43.795Z,6.75
2018-12-19T02:07:43.850Z,6.72
2018-12-19T02:09:36.836Z,6.72
2018-12-19T02:10:36.879Z,6.74
2018-12-19T02:12:29.856Z,6.69
2018-12-19T02:13:29.911Z,6.70
2018-12-19T02:15:22.897Z,6.62
2018-12-19T02:16:22.947Z,6.64
2018-12-19T02:18:15.921Z,6.63
2018-12-19T02:19:15.976Z,6.63
2018-12-19T02:21:08.957Z,6.63
2018-12-19T02:22:09.004Z,6.62
2018-12-19T02:24:01.987Z,6.69
2018-12-19T02:25:02.037Z,6.60
2018-12-19T02:26:55.012Z,6.56
2018-12-19T02:27:55.075Z,6.59
2018-12-19T02:29:48.051Z,6.60
2018-12-19T02:30:48.103Z,6.57
2018-12-19T02:32:41.077Z,6.63
2018-12-19T02:33:41.133Z,6.66
2018-12-19T02:35:34.112Z,6.74
2018-12-19T02:37:47.102Z,6.77
2018-12-19T02:38:47.159Z,6.85
2018-12-19T02:40:40.145Z,6.97
2018-12-19T02:41:40.196Z,7.00
2018-12-19T02:43:33.173Z,7.13
2018-12-19T02:44:33.227Z,7.17
2018-12-19T02:46:26.209Z,7.13
2018-12-19T02:47:26.262Z,7.29
2018-12-19T02:49:19.245Z,7.24
2018-12-19T02:50:19.293Z,7.24
2018-12-19T02:52:12.268Z,7.36
2018-12-19T02:53:12.322Z,7.38
2018-12-19T02:55:05.306Z,7.31
2018-12-19T02:56:05.352Z,7.38
2018-12-19T02:57:58.390Z,7.45
2018-12-19T02:58:58.385Z,7.40
2018-12-19T03:00:51.369Z,7.40
2018-12-19T03:01:51.416Z,7.47
2018-12-19T03:03:44.405Z,7.32
2018-12-19T03:04:44.461Z,7.31
2018-12-19T03:06:37.442Z,7.32
2018-12-19T03:07:37.492Z,7.29
2018-12-19T03:09:30.472Z,7.21
2018-12-19T03:10:30.520Z,7.18
2018-12-19T03:12:23.503Z,7.13
2018-12-19T03:13:23.558Z,7.21
2018-12-19T03:15:16.551Z,7.31
2018-12-19T03:16:16.593Z,7.31
2018-12-19T03:18:09.572Z,7.40
2018-12-19T03:19:09.631Z,7.40
2018-12-19T03:21:02.610Z,7.39
2018-12-19T03:22:02.657Z,7.39
2018-12-19T03:23:55.638Z,7.38
2018-12-19T03:24:55.689Z,7.36
2018-12-19T03:26:48.670Z,7.38
2018-12-19T03:27:48.721Z,7.40
2018-12-19T03:29:41.709Z,7.39
2018-12-19T03:30:41.759Z,7.40
2018-12-19T03:32:34.741Z,7.50
2018-12-19T03:33:34.798Z,7.40
2018-12-19T03:35:27.777Z,7.40
2018-12-19T03:36:27.828Z,7.45
2018-12-19T03:38:20.804Z,7.45
2018-12-19T03:39:20.861Z,7.42
2018-12-19T03:41:13.843Z,7.47
2018-12-19T03:42:13.898Z,7.53
2018-12-19T03:44:06.866Z,7.50
2018-12-19T03:45:06.929Z,7.56
2018-12-19T03:46:59.914Z,7.51
2018-12-19T03:47:59.956Z,7.47
2018-12-19T03:49:52.934Z,7.45
2018-12-19T03:50:52.978Z,7.51
2018-12-19T03:52:45.965Z,7.54
2018-12-19T03:53:46.023Z,7.54
2018-12-19T03:55:39.046Z,7.47
2018-12-19T03:56:39.060Z,7.48
2018-12-19T03:58:32.031Z,7.47
2018-12-19T03:59:32.082Z,7.54
2018-12-19T04:01:25.070Z,7.50
2018-12-19T04:02:25.122Z,7.43
2018-12-19T04:04:18.119Z,7.53
2018-12-19T04:05:18.158Z,7.48
2018-12-19T04:07:11.147Z,7.47
2018-12-19T04:08:11.205Z,7.47
2018-12-19T04:10:04.173Z,7.48
2018-12-19T04:11:04.222Z,7.43
2018-12-19T04:12:57.197Z,7.43
2018-12-19T04:13:57.254Z,7.40
2018-12-19T04:15:50.237Z,7.45
2018-12-19T04:16:50.284Z,7.43
2018-12-19T04:18:43.263Z,7.45
2018-12-19T04:19:43.320Z,7.42
2018-12-19T04:21:36.308Z,7.42
2018-12-19T04:22:36.374Z,7.39
2018-12-19T04:24:29.347Z,7.47
2018-12-19T04:25:29.383Z,7.33
2018-12-19T04:27:22.391Z,7.36
2018-12-19T04:28:22.417Z,7.39
2018-12-19T04:30:15.398Z,7.50
2018-12-19T04:31:15.451Z,7.40
2018-12-19T04:33:08.424Z,7.45
2018-12-19T04:34:08.480Z,7.38
2018-12-19T04:36:01.461Z,7.43
2018-12-19T04:37:01.510Z,7.32
2018-12-19T04:38:54.484Z,7.29
2018-12-19T04:39:54.539Z,7.28
2018-12-19T04:41:47.527Z,7.39
2018-12-19T04:42:47.572Z,7.36
2018-12-19T04:44:40.567Z,7.38
2018-12-19T04:45:40.620Z,7.32
2018-12-19T04:47:34.124Z,7.36
2018-12-19T04:48:34.173Z,7.31
2018-12-19T04:50:27.157Z,7.28
2018-12-19T04:51:27.209Z,7.25
2018-12-19T04:53:20.190Z,7.24
2018-12-19T04:54:20.241Z,7.29
2018-12-19T04:56:13.225Z,7.29
2018-12-19T04:57:13.273Z,7.28
2018-12-19T04:59:06.252Z,7.35
2018-12-19T05:00:06.308Z,7.32
2018-12-19T05:01:59.321Z,7.29
2018-12-19T05:02:59.367Z,7.28
2018-12-19T05:04:52.349Z,7.24
2018-12-19T05:05:52.408Z,7.28
2018-12-19T05:07:45.389Z,7.29
2018-12-19T05:08:45.441Z,7.21
2018-12-19T05:10:38.426Z,7.10
2018-12-19T05:11:38.473Z,7.15
2018-12-19T05:13:31.450Z,7.11
2018-12-19T05:14:31.500Z,7.24
2018-12-19T05:16:24.486Z,7.14
2018-12-19T05:17:24.538Z,7.28
2018-12-19T05:19:17.517Z,7.24
2018-12-19T05:20:17.571Z,7.24
2018-12-19T05:22:10.559Z,7.23
2018-12-19T05:23:10.607Z,7.14
2018-12-19T05:25:03.582Z,7.28
2018-12-19T05:26:03.634Z,7.18
2018-12-19T05:27:56.618Z,7.23
2018-12-19T05:28:56.671Z,7.25
2018-12-19T05:30:49.653Z,7.25
2018-12-19T05:31:49.703Z,7.29
2018-12-19T05:33:42.672Z,7.31
2018-12-19T05:34:42.729Z,7.25
2018-12-19T05:36:35.724Z,7.31
2018-12-19T05:37:35.769Z,7.32
2018-12-19T05:39:28.744Z,7.38
2018-12-19T05:40:28.800Z,7.39
2018-12-19T05:42:21.782Z,7.40
2018-12-19T05:43:21.831Z,7.43
2018-12-19T05:45:14.833Z,7.48
2018-12-19T05:46:14.888Z,7.40
2018-12-19T05:48:08.381Z,7.51
2018-12-19T05:49:08.427Z,7.63
2018-12-19T05:51:01.409Z,7.69
2018-12-19T05:52:01.459Z,7.67
2018-12-19T05:53:54.445Z,7.80
2018-12-19T05:54:54.493Z,7.83
2018-12-19T05:56:48.983Z,7.82
2018-12-19T05:57:49.039Z,7.87
2018-12-19T05:59:42.013Z,7.87
2018-12-19T06:00:42.068Z,7.87
2018-12-19T06:02:35.063Z,7.82
2018-12-19T06:03:35.109Z,7.90
2018-12-19T06:05:28.083Z,7.85
2018-12-19T06:06:28.141Z,7.90
2018-12-19T06:08:21.139Z,7.82
2018-12-19T06:09:21.175Z,7.77
2018-12-19T06:11:14.158Z,7.88
2018-12-19T06:12:14.206Z,7.82
2018-12-19T06:14:07.186Z,7.83
2018-12-19T06:15:07.243Z,7.83
2018-12-19T06:17:00.224Z,7.87
2018-12-19T06:18:00.272Z,7.80
2018-12-19T06:19:53.246Z,7.85
2018-12-19T06:20:53.302Z,7.94
2018-12-19T06:22:46.296Z,7.83
2018-12-19T06:23:46.345Z,7.83
2018-12-19T06:25:39.337Z,7.83
2018-12-19T06:26:39.382Z,7.83
2018-12-19T06:28:32.365Z,7.82
2018-12-19T06:29:32.415Z,7.82
2018-12-19T06:31:25.396Z,7.85
2018-12-19T06:32:25.446Z,7.82
2018-12-19T06:34:18.424Z,7.85
2018-12-19T06:35:18.473Z,7.77
2018-12-19T06:37:11.466Z,7.79
2018-12-19T06:38:11.525Z,7.80
2018-12-19T06:40:04.487Z,7.80
2018-12-19T06:41:04.545Z,7.80
2018-12-19T06:42:58.059Z,7.79
2018-12-19T06:43:58.083Z,7.77
2018-12-19T06:45:51.055Z,7.82
2018-12-19T06:46:51.110Z,7.77
2018-12-19T06:48:44.093Z,7.85
2018-12-19T06:49:44.154Z,7.85
2018-12-19T06:51:37.126Z,7.83
2018-12-19T06:52:37.182Z,7.85
2018-12-19T06:54:30.155Z,7.88
2018-12-19T06:55:30.208Z,7.85
2018-12-19T06:57:23.202Z,7.85
2018-12-19T06:58:23.252Z,7.82
2018-12-19T07:00:16.230Z,7.87
2018-12-19T07:01:16.282Z,7.88
2018-12-19T07:03:09.262Z,7.80
2018-12-19T07:04:09.313Z,7.79
2018-12-19T07:06:02.293Z,7.72
2018-12-19T07:07:02.350Z,7.69
2018-12-19T07:08:55.338Z,7.69
2018-12-19T07:09:55.382Z,7.69
2018-12-19T07:11:48.371Z,7.70
2018-12-19T07:12:48.414Z,7.72
2018-12-19T07:14:41.389Z,7.69
2018-12-19T07:15:41.447Z,7.61
2018-12-19T07:17:34.427Z,7.76
2018-12-19T07:18:34.475Z,7.66
2018-12-19T07:20:27.459Z,7.60
2018-12-19T07:21:27.515Z,7.60
2018-12-19T07:23:20.492Z,7.69
2018-12-19T07:24:20.541Z,7.73
2018-12-19T07:26:13.521Z,7.69
2018-12-19T07:27:13.580Z,7.63
2018-12-19T07:29:06.558Z,7.63
2018-12-19T07:30:06.784Z,7.66
2018-12-19T07:31:59.597Z,7.61
2018-12-19T07:32:59.640Z,7.61
2018-12-19T07:34:52.615Z,7.57
2018-12-19T07:35:52.671Z,7.61
2018-12-19T07:37:45.653Z,7.50
2018-12-19T07:38:45.702Z,7.54
2018-12-19T07:40:38.679Z,7.50
2018-12-19T07:41:38.734Z,7.50
2018-12-19T07:43:32.225Z,7.50
2018-12-19T07:44:32.271Z,7.51
2018-12-19T07:46:25.245Z,7.48
2018-12-19T07:47:25.321Z,7.51
2018-12-19T07:49:18.278Z,7.54
2018-12-19T07:50:18.330Z,7.53
2018-12-19T07:52:11.310Z,7.51
2018-12-19T07:53:11.359Z,7.50
2018-12-19T07:55:04.338Z,7.50
2018-12-19T07:56:04.397Z,7.50
2018-12-19T07:57:57.375Z,7.56
2018-12-19T07:58:57.453Z,7.60
2018-12-19T08:00:50.405Z,7.57
2018-12-19T08:01:50.462Z,7.57
2018-12-19T08:03:43.443Z,7.51
2018-12-19T08:04:43.490Z,7.56
2018-12-19T08:06:36.472Z,7.50
2018-12-19T08:07:36.529Z,7.53
2018-12-19T08:09:29.517Z,7.51
2018-12-19T08:10:29.563Z,7.51
2018-12-19T08:12:22.539Z,7.51
2018-12-19T08:13:22.596Z,7.54
2018-12-19T08:15:15.574Z,7.51
2018-12-19T08:16:15.624Z,7.51
2018-12-19T08:18:08.605Z,7.47
2018-12-19T08:19:08.654Z,7.48
2018-12-19T08:21:01.631Z,7.53
2018-12-19T08:22:01.687Z,7.56
2018-12-19T08:23:54.665Z,7.50
2018-12-19T08:24:54.712Z,7.53
2018-12-19T08:26:47.689Z,7.51
2018-12-19T08:27:47.746Z,7.50
2018-12-19T08:29:40.763Z,7.51
2018-12-19T08:30:40.774Z,7.53
2018-12-19T08:32:33.756Z,7.56
2018-12-19T08:33:33.806Z,7.48
2018-12-19T08:35:26.784Z,7.60
2018-12-19T08:36:26.836Z,7.58
2018-12-19T08:38:19.844Z,7.54
2018-12-19T08:39:19.866Z,7.58
2018-12-19T08:41:12.890Z,7.63
2018-12-19T08:42:12.911Z,7.63
2018-12-19T08:44:05.896Z,7.63
2018-12-19T08:45:05.942Z,7.56
2018-12-19T08:46:58.918Z,7.61
2018-12-19T08:47:58.987Z,7.63
2018-12-19T08:49:52.165Z,7.60
2018-12-19T08:50:52.216Z,7.58
2018-12-19T08:52:45.196Z,7.66
2018-12-19T08:53:45.267Z,7.63
2018-12-19T08:55:38.219Z,7.63
2018-12-19T08:56:38.275Z,7.73
2018-12-19T08:58:31.277Z,7.72
2018-12-19T08:59:31.313Z,7.67
2018-12-19T09:01:24.293Z,7.70
2018-12-19T09:02:24.369Z,7.70
2018-12-19T09:04:17.322Z,7.72
2018-12-19T09:05:17.371Z,7.61
2018-12-19T09:07:10.362Z,7.69
2018-12-19T09:08:10.410Z,7.70
2018-12-19T09:10:03.399Z,7.67
2018-12-19T09:11:05.902Z,7.73
2018-12-19T09:12:56.429Z,7.82
2018-12-19T09:13:56.478Z,7.70
2018-12-19T09:15:49.464Z,7.82
2018-12-19T09:16:49.518Z,7.79
2018-12-19T09:18:42.499Z,7.85
2018-12-19T09:19:42.555Z,7.80
2018-12-19T09:21:35.523Z,7.80
2018-12-19T09:22:35.576Z,7.91
2018-12-19T09:24:28.587Z,7.93
2018-12-19T09:25:28.617Z,7.98
2018-12-19T09:27:21.614Z,8.00
2018-12-19T09:28:21.652Z,8.01
2018-12-19T09:30:14.633Z,7.98
2018-12-19T09:31:14.687Z,8.08
2018-12-19T09:33:07.671Z,8.05
2018-12-19T09:34:07.719Z,8.06
2018-12-19T09:36:00.697Z,8.13
2018-12-19T09:37:00.754Z,8.24
2018-12-19T09:38:53.734Z,8.28
2018-12-19T09:39:53.783Z,8.30
2018-12-19T09:41:46.766Z,8.28
2018-12-19T09:42:46.825Z,8.30
2018-12-19T09:44:39.810Z,8.30
2018-12-19T09:45:39.859Z,8.28
2018-12-19T09:47:32.854Z,8.28
2018-12-19T09:48:32.892Z,8.45
2018-12-19T09:50:25.868Z,8.42
2018-12-19T09:51:25.925Z,8.49
2018-12-19T09:53:18.918Z,8.38
2018-12-19T09:54:18.966Z,8.44
2018-12-19T09:56:11.963Z,8.45
2018-12-19T09:57:12.011Z,8.45
2018-12-19T09:59:04.995Z,8.51
2018-12-19T10:00:07.028Z,8.51
2018-12-19T10:01:58.021Z,8.55
2018-12-19T10:02:58.138Z,8.60
2018-12-19T10:04:51.063Z,8.69
2018-12-19T10:05:51.108Z,8.73
2018-12-19T10:07:44.097Z,8.84
2018-12-19T10:08:44.140Z,8.79
2018-12-19T10:10:37.115Z,8.92
2018-12-19T10:11:37.172Z,8.89
2018-12-19T10:13:30.154Z,8.87
2018-12-19T10:14:30.204Z,8.85
2018-12-19T10:16:23.188Z,8.85
2018-12-19T10:17:23.242Z,8.87
2018-12-19T10:19:16.228Z,8.92
2018-12-19T10:20:16.275Z,8.91
2018-12-19T10:22:09.304Z,9.02
2018-12-19T10:23:09.309Z,9.02
2018-12-19T10:25:02.298Z,9.10
2018-12-19T10:26:02.344Z,9.18
2018-12-19T10:27:55.341Z,9.21
2018-12-19T10:28:55.377Z,9.18
2018-12-19T10:30:48.353Z,9.13
2018-12-19T10:31:48.410Z,9.14
2018-12-19T10:33:41.392Z,9.19
2018-12-19T10:34:41.441Z,9.22
2018-12-19T10:36:34.418Z,9.18
2018-12-19T10:37:34.475Z,9.26
2018-12-19T10:39:27.458Z,9.21
2018-12-19T10:40:27.509Z,9.26
2018-12-19T10:42:20.491Z,9.40
2018-12-19T10:43:20.554Z,9.36
2018-12-19T10:45:13.558Z,9.40
2018-12-19T10:46:13.613Z,9.44
2018-12-19T10:48:06.607Z,9.59
2018-12-19T10:49:06.643Z,9.56
2018-12-19T10:50:59.623Z,9.54
2018-12-19T10:51:59.677Z,9.54
2018-12-19T10:53:52.662Z,9.58
2018-12-19T10:54:52.713Z,9.55
2018-12-19T10:56:45.689Z,9.55
2018-12-19T10:57:45.743Z,9.58
2018-12-19T10:59:38.744Z,9.48
2018-12-19T11:00:38.794Z,9.48
2018-12-19T11:02:31.786Z,9.51
2018-12-19T11:03:31.844Z,9.47
2018-12-19T11:05:24.833Z,9.54
2018-12-19T11:06:24.889Z,9.55
2018-12-19T11:08:17.867Z,9.62
2018-12-19T11:09:17.919Z,9.62
2018-12-19T11:11:10.898Z,9.64
2018-12-19T11:12:10.954Z,9.62
2018-12-19T11:14:03.955Z,9.72
2018-12-19T11:15:03.989Z,9.74
2018-12-19T11:16:56.968Z,9.72
2018-12-19T11:17:57.025Z,9.72
2018-12-19T11:19:50.020Z,9.69
2018-12-19T11:20:50.239Z,9.73
2018-12-19T11:22:43.036Z,9.73
2018-12-19T11:23:43.095Z,9.74
2018-12-19T11:25:36.075Z,9.73
2018-12-19T11:26:36.127Z,9.73
2018-12-19T11:28:29.120Z,9.74
2018-12-19T11:29:29.171Z,9.80
2018-12-19T11:31:23.176Z,9.84
2018-12-19T11:32:23.229Z,9.82
2018-12-19T11:34:16.220Z,9.89
2018-12-19T11:35:16.266Z,9.87
2018-12-19T11:37:09.242Z,9.91
2018-12-19T11:38:09.301Z,9.80
2018-12-19T11:40:02.282Z,9.79
2018-12-19T11:41:02.332Z,9.83
2018-12-19T11:42:55.819Z,9.86
2018-12-19T11:43:55.874Z,9.97
2018-12-19T11:45:48.858Z,9.98
2018-12-19T11:46:48.906Z,9.99
2018-12-19T11:48:41.896Z,9.99
2018-12-19T11:49:41.943Z,9.89
2018-12-19T11:51:34.922Z,9.82
2018-12-19T11:52:34.977Z,9.92
2018-12-19T11:54:27.968Z,9.92
2018-12-19T11:55:28.011Z,9.91
2018-12-19T11:57:20.992Z,9.92
2018-12-19T11:58:21.048Z,9.82
2018-12-19T12:00:14.046Z,9.91
2018-12-19T12:01:14.082Z,9.94
2018-12-19T12:03:07.062Z,9.91
2018-12-19T12:04:07.116Z,9.89
2018-12-19T12:06:00.113Z,9.92
2018-12-19T12:07:00.170Z,9.87
2018-12-19T12:08:53.168Z,9.86
2018-12-19T12:09:53.211Z,9.94
2018-12-19T12:11:46.191Z,9.84
2018-12-19T12:12:46.235Z,9.91
2018-12-19T12:14:39.237Z,9.84
2018-12-19T12:15:39.352Z,9.87
2018-12-19T12:17:32.271Z,9.84
2018-12-19T12:18:32.331Z,9.86
2018-12-19T12:20:25.355Z,9.92
2018-12-19T12:21:25.364Z,9.83
2018-12-19T12:23:18.342Z,9.92
2018-12-19T12:24:18.394Z,9.87
2018-12-19T12:26:11.389Z,9.83
2018-12-19T12:27:11.441Z,9.87
2018-12-19T12:29:04.417Z,9.89
2018-12-19T12:30:04.476Z,9.79
2018-12-19T12:31:57.452Z,9.84
2018-12-19T12:32:57.506Z,9.87
2018-12-19T12:34:50.496Z,9.86
2018-12-19T12:35:50.549Z,9.82
2018-12-19T12:37:43.544Z,9.83
2018-12-19T12:38:43.598Z,9.91
2018-12-19T12:40:36.599Z,9.89
2018-12-19T12:41:36.679Z,9.91
2018-12-19T12:43:30.133Z,9.86
2018-12-19T12:44:30.187Z,9.92
2018-12-19T12:46:23.178Z,9.89
2018-12-19T12:47:23.223Z,9.92
2018-12-19T12:49:16.209Z,9.89
2018-12-19T12:50:16.259Z,9.99
2018-12-19T12:52:09.241Z,9.89
2018-12-19T12:53:09.299Z,9.91
2018-12-19T12:55:02.288Z,9.99
2018-12-19T12:56:02.333Z,9.99
2018-12-19T12:57:55.309Z,10.04
2018-12-19T12:58:55.372Z,10.02
2018-12-19T13:00:48.350Z,9.99
2018-12-19T13:01:48.400Z,9.94
2018-12-19T13:03:41.380Z,9.95
2018-12-19T13:04:41.438Z,9.89
2018-12-19T13:06:34.426Z,9.92
2018-12-19T13:07:34.489Z,9.86
2018-12-19T13:09:27.464Z,9.91
2018-12-19T13:10:27.512Z,9.84
2018-12-19T13:12:20.493Z,9.92
2018-12-19T13:13:20.543Z,9.92
2018-12-19T13:15:13.532Z,9.94
2018-12-19T13:16:13.579Z,9.89
2018-12-19T13:18:06.560Z,9.92
2018-12-19T13:19:06.618Z,9.87
2018-12-19T13:20:59.601Z,9.92
2018-12-19T13:21:59.650Z,9.92
2018-12-19T13:23:52.631Z,9.91
2018-12-19T13:24:52.699Z,9.98
2018-12-19T13:26:45.671Z,9.92
2018-12-19T13:27:45.721Z,9.95
2018-12-19T13:29:38.706Z,9.98
2018-12-19T13:30:38.757Z,10.01
2018-12-19T13:32:31.736Z,9.98
2018-12-19T13:33:31.795Z,9.99
2018-12-19T13:35:24.783Z,9.98
2018-12-19T13:36:24.837Z,9.99
2018-12-19T13:38:17.816Z,9.97
2018-12-19T13:39:17.874Z,9.94
2018-12-19T13:41:10.856Z,9.98
2018-12-19T13:42:10.913Z,10.02
2018-12-19T13:44:03.884Z,10.05
2018-12-19T13:45:03.942Z,10.02
2018-12-19T13:46:56.928Z,9.98
2018-12-19T13:47:56.977Z,10.01
2018-12-19T13:49:49.971Z,9.98
2018-12-19T13:50:50.025Z,9.98
2018-12-19T13:52:43.009Z,9.95
2018-12-19T13:53:43.066Z,9.98
2018-12-19T13:55:36.070Z,10.02
2018-12-19T13:56:36.122Z,10.01
2018-12-19T13:58:29.103Z,10.04
2018-12-19T13:59:29.165Z,9.99
2018-12-19T14:01:22.148Z,10.04
2018-12-19T14:02:22.197Z,10.01
2018-12-19T14:04:15.176Z,10.01
2018-12-19T14:05:15.228Z,10.01
2018-12-19T14:07:08.226Z,10.07
2018-12-19T14:08:08.274Z,10.02
2018-12-19T14:10:01.264Z,9.99
2018-12-19T14:11:01.312Z,10.05
2018-12-19T14:12:54.292Z,10.02
2018-12-19T14:13:54.352Z,9.99
2018-12-19T14:15:47.338Z,10.01
2018-12-19T14:16:47.386Z,9.97
2018-12-19T14:18:40.363Z,10.04
2018-12-19T14:19:40.418Z,9.95
2018-12-19T14:21:33.403Z,9.95
2018-12-19T14:22:33.456Z,9.87
2018-12-19T14:24:26.434Z,9.95
2018-12-19T14:25:26.489Z,9.87
2018-12-19T14:27:19.488Z,9.91
2018-12-19T14:28:19.538Z,9.91
2018-12-19T14:30:12.520Z,9.89
2018-12-19T14:31:12.571Z,9.91
2018-12-19T14:33:05.548Z,9.84
2018-12-19T14:34:05.605Z,9.82
2018-12-19T14:35:58.590Z,9.76
2018-12-19T14:36:58.642Z,9.79
2018-12-19T14:38:51.620Z,9.72
2018-12-19T14:39:51.678Z,9.74
2018-12-19T14:41:44.661Z,9.72
2018-12-19T14:42:44.712Z,9.73
2018-12-19T14:44:37.691Z,9.65
2018-12-19T14:45:37.747Z,9.73
2018-12-19T14:47:30.738Z,9.69
2018-12-19T14:48:30.782Z,9.69
2018-12-19T14:50:23.771Z,9.72
2018-12-19T14:51:23.822Z,9.72
2018-12-19T14:53:16.798Z,9.65
2018-12-19T14:54:16.856Z,9.68
2018-12-19T14:56:09.843Z,9.61
2018-12-19T14:57:09.894Z,9.59
2018-12-19T14:59:03.422Z,9.65
2018-12-19T15:00:03.434Z,9.64
2018-12-19T15:01:56.419Z,9.56
2018-12-19T15:02:56.472Z,9.66
2018-12-19T15:04:49.442Z,9.61
2018-12-19T15:05:49.504Z,9.54
2018-12-19T15:07:42.503Z,9.58
2018-12-19T15:08:42.539Z,9.55
2018-12-19T15:10:35.524Z,9.40
2018-12-19T15:11:35.580Z,9.41
2018-12-19T15:13:28.551Z,9.39
2018-12-19T15:14:28.610Z,9.37
2018-12-19T15:16:21.612Z,9.25
2018-12-19T15:17:21.662Z,9.37
2018-12-19T15:19:14.653Z,9.25
2018-12-19T15:20:14.708Z,9.29
2018-12-19T15:22:07.695Z,9.26
2018-12-19T15:23:07.747Z,9.23
2018-12-19T15:25:00.742Z,9.23
2018-12-19T15:26:00.779Z,9.19
2018-12-19T15:27:53.763Z,9.22
2018-12-19T15:28:53.813Z,9.21
2018-12-19T15:30:46.798Z,9.26
2018-12-19T15:31:46.844Z,9.22
2018-12-19T15:33:39.831Z,9.22
2018-12-19T15:34:39.890Z,9.28
2018-12-19T15:36:32.892Z,9.21
2018-12-19T15:37:32.961Z,9.28
2018-12-19T15:39:25.936Z,9.25
2018-12-19T15:40:25.992Z,9.25
2018-12-19T15:42:18.988Z,9.32
2018-12-19T15:43:19.026Z,9.32
2018-12-19T15:45:12.006Z,9.36
2018-12-19T15:46:12.063Z,9.37
2018-12-19T15:48:05.058Z,9.40
2018-12-19T15:49:05.110Z,9.37
2018-12-19T15:50:58.099Z,9.36
2018-12-19T15:51:58.143Z,9.43
2018-12-19T15:53:51.124Z,9.46
2018-12-19T15:54:51.181Z,9.43
2018-12-19T15:56:44.172Z,9.46
2018-12-19T15:57:44.217Z,9.48
2018-12-19T15:59:37.196Z,9.40
2018-12-19T16:00:37.252Z,9.40
2018-12-19T16:02:30.248Z,9.41
2018-12-19T16:03:30.306Z,9.47
2018-12-19T16:05:23.283Z,9.48
2018-12-19T16:06:23.340Z,9.48
2018-12-19T16:08:16.375Z,9.58
2018-12-19T16:09:16.376Z,9.48
2018-12-19T16:11:09.886Z,9.55
2018-12-19T16:12:09.412Z,9.55
2018-12-19T16:14:02.393Z,9.48
2018-12-19T16:15:02.446Z,9.51
2018-12-19T16:16:55.465Z,9.58
2018-12-19T16:17:55.482Z,9.50
2018-12-19T16:19:48.461Z,9.54
2018-12-19T16:20:48.516Z,9.56
2018-12-19T16:22:42.011Z,9.48
2018-12-19T16:23:42.059Z,9.56
2018-12-19T16:25:35.544Z,9.59
2018-12-19T16:26:35.601Z,9.54
2018-12-19T16:28:28.587Z,9.54
2018-12-19T16:29:28.633Z,9.51
2018-12-19T16:31:21.617Z,9.58
2018-12-19T16:32:21.668Z,9.54
2018-12-19T16:34:14.653Z,9.64
2018-12-19T16:35:14.708Z,9.58
2018-12-19T16:37:07.696Z,9.64
2018-12-19T16:38:07.760Z,9.66
2018-12-19T16:40:00.724Z,9.62
2018-12-19T16:41:00.780Z,9.64
2018-12-19T16:42:53.770Z,9.62
2018-12-19T16:43:53.817Z,9.56
2018-12-19T16:45:46.818Z,9.59
2018-12-19T16:46:46.849Z,9.65
2018-12-19T16:48:39.857Z,9.62
2018-12-19T16:49:39.894Z,9.48
2018-12-19T16:51:32.881Z,9.64
2018-12-19T16:52:32.931Z,9.54
2018-12-19T16:54:25.912Z,9.51
2018-12-19T16:55:25.969Z,9.58
2018-12-19T16:57:18.952Z,9.62
2018-12-19T16:58:19.004Z,9.62
2018-12-19T17:00:11.985Z,9.59
2018-12-19T17:01:12.040Z,9.66
2018-12-19T17:03:05.033Z,9.65
2018-12-19T17:04:05.110Z,9.62
2018-12-19T17:05:58.073Z,9.72
2018-12-19T17:06:58.110Z,9.74
2018-12-19T17:08:51.103Z,9.72
2018-12-19T17:09:51.152Z,9.76
2018-12-19T17:11:44.139Z,9.68
2018-12-19T17:12:44.188Z,9.68
2018-12-19T17:14:37.167Z,9.69
2018-12-19T17:15:37.226Z,9.69
2018-12-19T17:17:30.226Z,9.73
2018-12-19T17:18:30.261Z,9.72
2018-12-19T17:20:23.241Z,9.65
2018-12-19T17:21:23.301Z,9.73
2018-12-19T17:23:16.793Z,9.68
2018-12-19T17:24:16.838Z,9.69
2018-12-19T17:26:09.824Z,9.72
2018-12-19T17:27:09.880Z,9.73
2018-12-19T17:29:02.871Z,9.66
2018-12-19T17:30:02.915Z,9.73
2018-12-19T17:31:55.906Z,9.74
2018-12-19T17:32:55.957Z,9.73
2018-12-19T17:34:48.948Z,9.59
2018-12-19T17:35:49.073Z,9.66
2018-12-19T17:37:42.050Z,9.73
2018-12-19T17:38:42.040Z,9.72
2018-12-19T17:40:35.019Z,9.72
2018-12-19T17:41:35.074Z,9.61
2018-12-19T17:43:28.057Z,9.64
2018-12-19T17:44:28.107Z,9.54
2018-12-19T17:46:21.091Z,9.44
2018-12-19T17:47:21.144Z,9.36
2018-12-19T17:49:14.136Z,9.36
2018-12-19T17:50:14.186Z,9.26
2018-12-19T17:52:07.167Z,9.26
2018-12-19T17:53:07.224Z,9.18
2018-12-19T17:55:00.198Z,9.18
2018-12-19T17:56:00.274Z,9.22
2018-12-19T17:57:53.234Z,9.04
2018-12-19T17:58:53.285Z,9.06
2018-12-19T18:00:46.268Z,9.03
2018-12-19T18:01:46.320Z,9.02
2018-12-19T18:03:39.305Z,9.02
2018-12-19T18:04:39.350Z,8.95
2018-12-19T18:06:32.349Z,8.95
2018-12-19T18:07:32.390Z,8.88
2018-12-19T18:09:25.368Z,8.88
2018-12-19T18:10:25.423Z,8.89
2018-12-19T18:12:18.406Z,8.87
2018-12-19T18:13:18.449Z,8.94
2018-12-19T18:15:11.429Z,8.92
2018-12-19T18:16:11.484Z,8.87
2018-12-19T18:18:04.474Z,8.88
2018-12-19T18:19:04.721Z,8.95
2018-12-19T18:20:57.500Z,9.02
2018-12-19T18:21:57.620Z,9.02
2018-12-19T18:23:50.546Z,9.02
2018-12-19T18:24:50.590Z,8.99
2018-12-19T18:26:43.570Z,9.00
2018-12-19T18:27:43.625Z,9.06
2018-12-19T18:29:36.627Z,9.06
2018-12-19T18:30:36.677Z,9.03
2018-12-19T18:32:29.671Z,9.14
2018-12-19T18:33:29.717Z,9.13
2018-12-19T18:35:22.718Z,9.13
2018-12-19T18:36:22.750Z,9.06
2018-12-19T18:38:15.741Z,9.08
2018-12-19T18:39:15.783Z,9.06
2018-12-19T18:41:08.775Z,9.08
2018-12-19T18:42:08.820Z,9.04
2018-12-19T18:44:01.812Z,9.06
2018-12-19T18:45:01.863Z,9.10
2018-12-19T18:46:54.839Z,9.08
2018-12-19T18:47:54.897Z,9.06
2018-12-19T18:49:47.886Z,9.00
2018-12-19T18:50:47.940Z,8.97
2018-12-19T18:52:40.914Z,9.11
2018-12-19T18:53:40.966Z,9.00
2018-12-19T18:55:33.945Z,9.03
2018-12-19T18:56:34.011Z,9.02
2018-12-19T18:58:27.005Z,8.99
2018-12-19T18:59:27.088Z,8.97
2018-12-19T19:01:20.062Z,9.02
2018-12-19T19:02:20.083Z,8.89
2018-12-19T19:04:13.048Z,9.04
2018-12-19T19:05:13.169Z,9.00
2018-12-19T19:07:06.074Z,9.00
2018-12-19T19:08:06.168Z,9.04
2018-12-19T19:09:59.619Z,9.10
2018-12-19T19:10:59.667Z,9.03